Espanola, Washington
Current Conditions -  °F | °C
As of 6:58 AM on Friday 24 Oct 2014 (Local Time) from KSKA Reporting Station
Overcast Overcast  
Wind Chill: 39°   Ceiling: 10000
Heat Index: 42°   Visibility: 10mi
Dew Point: 40°   Wind: 5mph
Humidity: 95%   Direction: 120°ESE
Pressure: 30.06"   Gusts: NA
Location:  47.6094°N, 117.705°W
Report Text: KSKA 241358Z AUTO 12004KT 10SM OVC100 05/05 A3006 RMK AO2 SLP191 T00530046 $
Loading
Personal Weather Stations






























Interactive Weather Map New forecast layout! Learn more

10-Day Weather Forecast

Advertisements
Track Severe Weather on mobile